Bethpage, NY (11714)

4:16 PM EDT on August 21, 2014 (GMT -0400)
Levittown | Change Station
CLOSE
Current Station
Personal Weather Station
Location: Levittown, NY
Elevation: 98 ft
Nearby Weather Stations

Elev 98 ft 40.74 °N, 73.51 °W | Updated 15 minutes ago

Partly Cloudy
Partly Cloudy
83.6 °F
Feels Like 83 °F
N
0.0
Wind Variable Wind from North
Gusts 1.0 mph

Today
High -- | Low -- °F
--% Chance of Precip.
Yesterday
High -- | Low -- °F
Precip. -- in
6:10 AM 7:43 PM
Waning Crescent, 12% visible
Pressure 30.04 in
Visibility 10.0 miles
Clouds Few 6000 ft
Heat Index 83 °F
Dew Point 59 °F
Humidity 43%
Rainfall 0.00 in
Snow Depth Not available.
UV 5 out of 12
Pollen 8.80 out of 12
Air Quality Not available.
Flu Activity Not available.
METAR KFRG 211953Z 14010KT 10SM FEW060 24/13 A3004 RMK AO2 SLP172 T02440133

More Conditions Fewer Conditions

Pressure 30.04 in
Visibility 10.0 miles
Clouds Few 6000 ft
Heat Index 83 °F
Dew Point 59 °F
Humidity 43%
Rainfall 0.00 in
Snow Depth Not available.
UV 5 out of 12
Pollen 8.80 out of 12
Air Quality Not available.
Flu Activity Not available.
METAR KFRG 211953Z 14010KT 10SM FEW060 24/13 A3004 RMK AO2 SLP172 T02440133

More Conditions Fewer Conditions

10-Day Weather Forecast

Almanac

Astronomy

Aug. 21, 2014 Rise Set
Actual Time 6:10 AM EDT 7:43 PM EDT
Civil Twilight 5:41 AM EDT 8:12 PM EDT
Nautical Twilight 5:06 AM EDT 8:46 PM EDT
Astronomical Twilight 4:29 AM EDT 9:23 PM EDT
Moon 2:37 AM EDT 5:10 PM EDT
Length of Visible Light 14h 30m
Length of Day
13h 33m
Tomorrow will be 2m 28s shorter.
Waning Crescent, 12% of the Moon is Illuminated
Today
Waning Crescent
Aug 25
New
Sep 2
First Quarter
Sep 8
Full
Sep 15
Last Quarter

Today's Extremes

State Highs State Lows

Community

WunderPhotos

Upload Photos

1,746,014 photos uploaded!

WunderBlogs® & News

Nearby

Snow Depth

Station Depth Elevation
No new snow has been reported.

Earthquake Activity

City Distance Mag. Time & Date
No recent earthquake activity has been reported nearby.
Minimum magnitude displayed is 2.5.

Coastal Water Temperatures

Place Temperature
No Stations Reporting

Nearby Weather Stations